Kaweah, California
Current Conditions -  °F | °C
As of 3:15 PM on Wednesday 22 Oct 2014 (Local Time) from KVIS Reporting Station
Clear Clear  
Wind Chill: 75°   Ceiling: Unl
Heat Index: 75°   Visibility: 10mi
Dew Point: 48°   Wind: 5mph
Humidity: 38%   Direction: 290°WNW
Pressure: 30.02"   Gusts: NA
Location:  36.47°N, 118.92°W
Report Text: KVIS 222215Z 29004KT 10SM CLR 24/09 A3002 RMK AO1
Loading
Personal Weather Stations






























Interactive Weather Map
Tropical Storm Tracking
New forecast layout! Learn more

10-Day Weather Forecast

Advertisements
Track Severe Weather on mobile